Airfield :
LOGIN :

Register | Disclaimer

   EN    FR    IT 

 










Legend :    VFR   Marginal VFR   IFR   Intensive IFR   Very Intensive IFR
Visi :
Ceiling :
>= 8 km
>= 3000ft
5 to 8 km
1000 to 3000 ft
1500m to 5 km
500 to 1000 ft
800 to 1500m
200 to 500 ft
< 800m
< 200 ft
Symbols :   Thunderstorms  Fog  Heavy snow  Heavy precipitations  Wind > 20 kt
SIGMETs :     Misc.  Thunderstorms  Icing  Turbulence  Mountain Waves  Volcanic Ashes






- Airport Elevation : 20 ft


EBFN - Koksijde

CURRENT METAR :
  • 261525Z AUTO 24012KT 9999 SCT028/// 18/12 Q1013 BLU

EXPIRED METARs :
  • 261455Z AUTO 27011KT 9999 DZ SCT026/// 18/13 Q1013 BLU
  • 261445Z AUTO 28012KT 9999 DZ FEW022/// SCT026/// 18/14 Q1013 BLU
  • 261425Z AUTO 28014KT 9999 BKN023/// 17/14 Q1013 WHT
  • 261405Z AUTO 29011KT 9999 BKN024/// 17/14 Q1013 WHT
  • 261355Z AUTO 30011KT 9999 BKN025/// BKN060/// BKN069/// 16/13 Q1013 BLU
  • 261325Z AUTO 30011KT 9999 SCT038/// BKN049/// 16/14 Q1013 BLU
  • 261255Z AUTO 28007KT 9999 SCT073/// BKN083/// 17/13 Q1012 BLU
  • 261225Z AUTO 26008KT 9999 -RA BKN027/// BKN060/// BKN082/// 15/13 Q1013 BLU
  • 261217Z AUTO 27010KT 2600 +RA BKN027/// BKN063/// 15/13 Q1013 YLO
  • 261155Z AUTO 21005KT 9999 FEW025/// 17/12 Q1013 BLU
  • 261125Z AUTO 20006KT 9999 SCT021/// SCT094/// 19/14 Q1012 WHT
  • 261050Z AUTO 17006KT 9999 SCT015/// SCT084/// 19/15 Q1012 WHT
  • 261055Z AUTO 18007KT 9999 SCT015/// 19/14 Q1012 WHT

TAF TAF EBFN
Valid from the 26 at 13:00 until the 26 at 22:00 UTC


261141Z 2613/2622 26012G22KT 9999 FEW020 SCT050
TEMPO 2613/2616 26015G25KT 6000 -SHRA SCT020TCU BKN035
PROB40
TEMPO 2613/2616 26020G30KT 3000 SHRA -TSRA SCT012 BKN018CB
BECMG 2620/2622 22010KT FEW250 BY EBWM



MET'MAP, your aeronautical weather chart ! - Copyright ORBIFLY December 2007 - Disclaimer

ORBIFLY MET'MAP TEAM :

Programming & Development : Alexandra Zaïnal
Original concept : Baudouin d'Aumeries
Technical & hardware support : Manuel Goepfert
Assistance : Marc-Olivier Méhu




SOURCES & CREDITS :

   NOAA